Time;durP1;ratioP1;P1;durP2;ratioP2;P2;SDS_P1;SDS_P2;PMS_P1;PMS_P2;Temp;Humidity;BMP_temperature;BMP_pressure;BME280_temperature;BME280_humidity;BME280_pressure;Samples;Min_cycle;Max_cycle;Signal;HPM_P1;HPM_P2
2022/07/25 00:01:20;;;;;;;3.00;2.75;;;20.70;99.90;;;-141.84;44.64;21301.81;5035266;28;20230;-63
2022/07/25 00:03:50;;;;;;;3.78;2.88;;;20.70;99.90;;;-141.84;44.55;21242.84;5041148;28;20225;-63
2022/07/25 00:06:18;;;;;;;4.30;2.70;;;20.70;99.90;;;-141.84;44.67;21220.47;5055273;28;20240;-63
2022/07/25 00:08:46;;;;;;;4.05;2.95;;;20.60;99.90;;;-141.84;44.85;21265.22;5055347;28;20213;-63
2022/07/25 00:11:14;;;;;;;4.28;2.70;;;20.60;99.90;;;-141.84;44.84;21228.63;5054947;28;20213;-63
2022/07/25 00:13:43;;;;;;;3.40;3.10;;;20.60;99.90;;;-141.84;45.09;21240.81;5055876;28;20197;-63
2022/07/25 00:16:12;;;;;;;3.05;2.72;;;20.50;99.90;;;-141.84;45.09;21192.03;5054931;28;20224;-63
2022/07/25 00:18:41;;;;;;;5.75;2.70;;;20.50;99.90;;;-141.84;45.43;21212.34;5055116;28;20221;-62
2022/07/25 00:21:09;;;;;;;3.50;2.95;;;20.40;99.90;;;-141.84;45.40;21204.22;5054936;28;20687;-63
2022/07/25 00:23:37;;;;;;;2.97;2.65;;;20.40;99.90;;;-141.84;45.51;21212.34;5055236;28;20232;-65
2022/07/25 00:26:05;;;;;;;5.50;2.92;;;20.40;99.90;;;-141.84;45.63;21179.81;5054678;28;20252;-63
2022/07/25 00:28:33;;;;;;;4.00;3.05;;;20.30;99.90;;;-141.84;45.58;21165.59;5055349;28;20672;-63
2022/07/25 00:31:02;;;;;;;3.60;3.05;;;20.30;99.90;;;-141.84;45.42;21179.81;5054811;28;20607;-63
2022/07/25 00:33:31;;;;;;;3.58;2.67;;;20.30;99.90;;;-141.84;45.69;21208.28;5054979;28;20229;-64
2022/07/25 00:36:00;;;;;;;3.40;3.10;;;20.30;99.90;;;-141.84;45.67;21200.16;5054590;28;20233;-63
2022/07/25 00:38:28;;;;;;;3.20;3.00;;;20.30;99.90;;;-141.84;45.81;21206.25;5055078;28;20307;-63
2022/07/25 00:40:56;;;;;;;3.28;2.95;;;20.30;99.90;;;-141.84;46.10;21167.63;5055121;28;20216;-62
2022/07/25 00:43:24;;;;;;;3.28;2.90;;;20.20;99.90;;;-141.84;46.18;21159.50;5055616;28;20209;-62
2022/07/25 00:45:52;;;;;;;5.47;2.90;;;20.20;99.90;;;-141.84;46.00;21179.81;5054589;28;20232;-63
2022/07/25 00:48:20;;;;;;;3.50;3.20;;;20.20;99.90;;;-141.84;46.03;21185.91;5054468;28;20225;-63
2022/07/25 00:50:49;;;;;;;3.42;3.13;;;20.20;99.90;;;-141.84;46.29;21153.41;5054594;28;20233;-63
2022/07/25 00:53:18;;;;;;;4.65;3.60;;;20.20;99.90;;;-141.84;46.47;21139.16;5054731;28;20330;-63
2022/07/25 00:55:47;;;;;;;4.00;3.70;;;20.20;99.90;;;-141.84;46.26;21204.22;5053212;28;20225;-63
2022/07/25 00:58:17;;;;;;;4.00;3.60;;;20.20;99.90;;;-141.84;46.62;21155.44;5034340;28;20238;-63
2022/07/25 01:00:46;;;;;;;3.95;3.65;;;20.20;99.90;;;-141.84;46.56;21131.03;5044939;28;20229;-63
2022/07/25 01:03:15;;;;;;;4.60;4.20;;;20.10;99.90;;;-141.84;46.90;21135.09;5054090;28;20744;-63
2022/07/25 01:05:44;;;;;;;4.97;4.20;;;20.20;99.90;;;-141.84;46.98;21161.53;5054566;28;20245;-63
2022/07/25 01:08:22;;;;;;;4.43;4.03;;;20.10;99.90;;;-141.84;46.79;21145.25;5054402;28;20236;-63
2022/07/25 01:10:50;;;;;;;4.93;4.40;;;20.10;99.90;;;-141.84;47.03;21135.09;5054535;28;20633;-63
2022/07/25 01:13:18;;;;;;;4.45;3.90;;;20.10;99.90;;;-141.84;47.19;21120.88;5053731;28;20237;-63
2022/07/25 01:15:47;;;;;;;4.05;3.65;;;20.00;99.90;;;-141.84;47.26;21106.63;5054029;28;20290;-64
2022/07/25 01:18:16;;;;;;;4.82;4.43;;;20.00;99.90;;;-141.84;47.26;21122.91;5053857;28;20229;-64
2022/07/25 01:20:46;;;;;;;4.35;3.95;;;20.00;99.90;;;-141.84;47.13;21116.78;5054119;28;20224;-62
2022/07/25 01:23:14;;;;;;;4.55;3.38;;;20.00;99.90;;;-141.84;47.12;21147.28;5053589;28;20558;-62
2022/07/25 01:25:42;;;;;;;4.65;3.60;;;20.00;99.90;;;-141.84;47.31;21133.06;5054230;28;20556;-63
2022/07/25 01:28:10;;;;;;;3.95;3.55;;;20.00;99.90;;;-141.84;47.46;21143.22;5053615;28;20233;-63
2022/07/25 01:30:38;;;;;;;3.85;3.50;;;20.00;99.90;;;-141.84;47.55;21141.19;5053852;28;20229;-64
2022/07/25 01:33:06;;;;;;;4.15;3.83;;;20.00;99.90;;;-141.84;47.43;21120.88;5053502;28;20318;-63
2022/07/25 01:35:35;;;;;;;4.15;3.78;;;20.00;99.90;;;-141.84;47.53;21161.53;5053737;28;20232;-62
2022/07/25 01:38:12;;;;;;;5.47;3.55;;;20.00;99.90;;;-141.84;47.55;21135.09;5053755;28;20295;-65
2022/07/25 01:40:41;;;;;;;3.83;3.42;;;20.00;99.90;;;-141.84;47.76;21090.38;5054252;28;20181;-64
2022/07/25 01:43:11;;;;;;;4.25;3.85;;;20.00;99.90;;;-141.84;47.70;21155.44;5033229;28;20713;-63
2022/07/25 01:45:39;;;;;;;5.15;4.00;;;20.00;99.90;;;-141.84;47.81;21126.97;5033829;28;20309;-62
2022/07/25 01:48:07;;;;;;;4.88;3.85;;;20.00;99.90;;;-141.84;47.80;21120.88;5033371;28;20221;-63
2022/07/25 01:50:36;;;;;;;4.30;3.90;;;20.00;99.90;;;-141.84;48.06;21096.47;5033919;28;20304;-65
2022/07/25 01:53:04;;;;;;;4.03;3.72;;;20.00;99.90;;;-141.84;48.14;21116.78;5033442;28;20206;-64
2022/07/25 01:55:33;;;;;;;4.65;3.45;;;20.00;99.90;;;-141.84;48.43;21122.91;5033992;28;20309;-63
2022/07/25 01:58:02;;;;;;;3.95;3.65;;;20.00;99.90;;;-141.84;48.53;21080.19;5053027;28;20227;-63
2022/07/25 02:00:30;;;;;;;4.45;4.05;;;19.90;99.90;;;-141.84;48.48;21088.34;5053221;28;20255;-62
2022/07/25 02:05:55;;;;;;;4.65;4.03;;;19.90;99.90;;;-141.84;49.03;21043.59;4991507;28;20792;-63
2022/07/25 02:08:23;;;;;;;4.00;3.70;;;19.80;99.90;;;-141.84;49.14;21055.81;5034758;28;20251;-62
2022/07/25 02:10:53;;;;;;;4.65;4.25;;;19.80;99.90;;;-141.84;49.23;21055.81;5033760;28;20194;-62
2022/07/25 02:13:21;;;;;;;4.80;3.97;;;19.80;99.90;;;-141.84;49.52;21082.25;5032822;28;20320;-62
2022/07/25 02:15:50;;;;;;;4.65;4.25;;;19.80;99.90;;;-141.84;49.84;21057.84;5033038;28;20228;-63
2022/07/25 02:18:18;;;;;;;4.50;4.10;;;19.80;99.90;;;-141.84;49.93;21088.34;5032693;28;20646;-62
2022/07/25 02:20:46;;;;;;;4.57;4.18;;;19.70;99.90;;;-141.84;49.95;21065.97;5033158;28;20236;-63
2022/07/25 02:23:14;;;;;;;5.32;4.38;;;19.70;99.90;;;-141.84;49.97;21025.31;5032666;28;20550;-63
2022/07/25 02:25:42;;;;;;;4.82;4.35;;;19.70;99.90;;;-141.84;50.17;21065.97;5033577;28;20208;-62
2022/07/25 02:28:12;;;;;;;4.80;4.32;;;19.70;99.90;;;-141.84;50.06;21057.84;5032513;28;20228;-63
2022/07/25 02:30:40;;;;;;;6.25;4.40;;;19.70;99.90;;;-141.84;50.24;21065.97;5032865;28;20264;-63
2022/07/25 02:33:08;;;;;;;5.18;4.75;;;19.70;99.90;;;-141.84;50.49;21027.34;5032410;28;20230;-63
2022/07/25 02:35:36;;;;;;;4.80;4.38;;;19.70;99.90;;;-141.84;50.50;21041.56;5032636;28;20230;-62
2022/07/25 02:38:04;;;;;;;4.90;4.50;;;19.60;99.90;;;-141.84;51.05;21023.28;5032551;28;20201;-62
2022/07/25 02:40:33;;;;;;;5.03;4.53;;;19.60;99.90;;;-141.84;50.87;21021.25;5033070;28;20209;-62
2022/07/25 02:43:01;;;;;;;5.15;4.75;;;19.60;99.90;;;-141.84;51.12;21013.13;5032159;28;20241;-63
2022/07/25 02:45:30;;;;;;;5.43;4.65;;;19.60;99.90;;;-141.84;51.18;21013.13;5032506;28;20247;-62
2022/07/25 02:48:01;;;;;;;4.85;4.45;;;19.50;99.90;;;-141.84;51.47;20976.53;5032141;28;20784;-62
2022/07/25 02:50:29;;;;;;;4.47;4.03;;;19.50;99.90;;;-141.84;51.42;21017.19;5032543;28;20225;-62
2022/07/25 02:52:57;;;;;;;5.28;4.22;;;19.40;99.90;;;-141.84;51.73;20992.78;5032328;28;20210;-62
2022/07/25 02:55:25;;;;;;;5.30;4.80;;;19.40;99.90;;;-141.84;51.68;21004.97;5052584;28;20355;-62
2022/07/25 02:57:53;;;;;;;5.45;4.95;;;19.40;99.90;;;-141.84;51.97;20974.50;5017156;28;20231;-62
2022/07/25 03:00:22;;;;;;;5.50;4.90;;;19.40;99.90;;;-141.84;51.86;21013.13;5012374;28;20234;-63
2022/07/25 03:02:52;;;;;;;5.82;5.07;;;19.40;99.90;;;-141.84;51.85;20996.84;5012368;28;20230;-63
2022/07/25 03:05:20;;;;;;;5.57;5.00;;;19.40;99.90;;;-141.84;52.33;21000.91;5012481;28;20228;-63
2022/07/25 03:07:48;;;;;;;5.90;5.03;;;19.40;99.90;;;-141.84;52.08;20988.72;5012874;28;20202;-63
2022/07/25 03:10:16;;;;;;;5.35;4.85;;;19.40;99.90;;;-141.84;52.07;20976.53;5012152;28;20272;-64
2022/07/25 03:12:45;;;;;;;5.10;4.70;;;19.40;99.90;;;-141.84;51.61;21023.28;5028828;28;20225;-63
2022/07/25 03:15:14;;;;;;;6.22;5.30;;;19.50;99.90;;;-141.84;52.04;21004.97;5032016;28;20222;-63
2022/07/25 03:17:42;;;;;;;6.75;5.25;;;19.50;99.90;;;-141.84;52.24;20998.88;5031925;28;20328;-62
2022/07/25 03:20:13;;;;;;;6.38;5.28;;;19.40;99.90;;;-141.84;52.16;21011.09;5031941;28;20213;-62
2022/07/25 03:22:41;;;;;;;5.57;5.07;;;19.40;99.90;;;-141.84;52.38;20986.69;5031531;28;20607;-63
2022/07/25 03:25:09;;;;;;;5.28;4.85;;;19.40;99.90;;;-141.84;52.64;20964.31;5031640;28;20232;-62
2022/07/25 03:27:49;;;;;;;5.18;4.78;;;19.40;99.90;;;-141.84;52.56;20990.75;5031754;28;20229;-62
2022/07/25 03:30:17;;;;;;;5.80;5.30;;;19.40;99.90;;;-141.84;52.45;21023.28;5031729;28;20232;-63
2022/07/25 03:32:45;;;;;;;5.70;5.20;;;19.40;99.90;;;-141.84;52.19;20950.09;5031858;28;20222;-61
2022/07/25 03:35:16;;;;;;;5.30;4.90;;;19.40;99.90;;;-141.84;52.76;20982.63;5031451;28;20673;-63
2022/07/25 03:37:44;;;;;;;5.60;5.10;;;19.40;99.90;;;-141.84;52.98;20968.38;5032221;28;20552;-61
2022/07/25 03:40:14;;;;;;;5.40;5.00;;;19.40;99.90;;;-141.84;52.80;20992.78;5031391;28;20225;-63
2022/07/25 03:42:43;;;;;;;6.10;5.05;;;19.40;99.90;;;-141.84;53.01;20982.63;5031226;28;20725;-63
2022/07/25 03:45:11;;;;;;;6.55;5.13;;;19.40;99.90;;;-141.84;53.11;20980.59;5031196;28;20731;-62
2022/07/25 03:47:39;;;;;;;5.63;5.13;;;19.30;99.90;;;-141.84;53.13;20996.84;5031385;28;20218;-63
2022/07/25 03:50:08;;;;;;;5.93;5.43;;;19.30;99.90;;;-141.84;53.11;20952.13;5030397;28;20203;-62
2022/07/25 03:52:38;;;;;;;4.90;4.50;;;19.30;99.90;;;-141.84;53.32;20937.91;5031967;28;20553;-62
2022/07/25 03:55:08;;;;;;;6.53;5.30;;;19.30;99.90;;;-141.84;53.26;20968.38;5031088;28;20713;-61
2022/07/25 03:57:36;;;;;;;6.03;5.43;;;19.40;99.90;;;-141.84;53.05;20956.19;5014716;28;20234;-63
2022/07/25 04:00:08;;;;;;;6.25;5.57;;;19.40;99.90;;;-141.84;52.99;20994.81;5011586;28;20222;-64
2022/07/25 04:02:37;;;;;;;6.35;5.75;;;19.40;99.90;;;-141.84;52.96;20990.75;5011457;28;20265;-63
2022/07/25 04:05:07;;;;;;;6.05;5.55;;;19.50;99.90;;;-141.84;52.98;20998.88;5011560;28;20245;-63
2022/07/25 04:07:38;;;;;;;5.95;5.45;;;19.50;99.90;;;-141.84;53.17;21009.03;5012213;28;20179;-62
2022/07/25 04:10:08;;;;;;;6.07;5.47;;;19.60;99.90;;;-141.84;53.19;21002.94;5011452;28;20587;-62
2022/07/25 04:12:37;;;;;;;6.22;5.63;;;19.50;99.90;;;-141.84;53.54;21017.19;5026867;28;20233;-63
2022/07/25 04:15:07;;;;;;;7.68;6.07;;;19.50;99.90;;;-141.84;53.68;20968.38;5030993;28;20230;-63
2022/07/25 04:17:35;;;;;;;5.80;5.30;;;19.50;99.90;;;-141.84;53.44;21017.19;5030859;28;20716;-63
2022/07/25 04:20:07;;;;;;;5.68;5.18;;;19.50;99.90;;;-141.84;53.44;21045.63;5031327;28;20182;-62
2022/07/25 04:22:35;;;;;;;6.70;6.03;;;19.60;99.90;;;-141.84;53.90;20988.72;5031653;28;20708;-63
2022/07/25 04:25:06;;;;;;;6.28;5.68;;;19.60;99.90;;;-141.84;nan;20968.38;5030891;28;20709;-63
2022/07/25 04:27:34;;;;;;;7.07;5.70;;;19.50;99.90;;;-141.84;54.15;21004.97;5030972;28;20222;-63
2022/07/25 04:30:02;;;;;;;6.20;5.65;;;19.50;99.90;;;-141.84;53.91;20982.63;5031056;28;20225;-62
2022/07/25 04:32:30;;;;;;;6.88;6.18;;;19.50;99.90;;;-141.84;53.73;21029.38;5030779;28;20739;-63
2022/07/25 04:34:58;;;;;;;5.90;5.40;;;19.50;99.90;;;-141.84;54.15;20992.78;5031884;28;20571;-64
2022/07/25 04:37:26;;;;;;;6.15;5.55;;;19.60;99.90;;;-141.84;53.78;21004.97;5034825;28;20708;-62
2022/07/25 04:39:54;;;;;;;6.38;5.50;;;19.60;99.90;;;-141.84;53.79;21007.00;5034522;28;20233;-63
2022/07/25 04:42:24;;;;;;;7.18;6.47;;;19.70;99.90;;;-141.84;54.03;21072.06;5034578;28;20226;-62
2022/07/25 04:44:52;;;;;;;6.22;5.70;;;19.80;99.90;;;-141.84;53.48;21039.53;5034174;28;20316;-61
2022/07/25 04:47:20;;;;;;;6.28;5.68;;;19.90;99.90;;;-141.84;53.65;21070.03;5034368;28;20222;-64
2022/07/25 04:49:48;;;;;;;7.18;6.28;;;19.90;99.90;;;-141.84;53.36;21068.00;5034914;28;20198;-63
2022/07/25 04:52:16;;;;;;;6.70;6.10;;;20.00;99.90;;;-141.84;52.89;21141.19;5034191;28;20724;-63
2022/07/25 04:54:44;;;;;;;7.93;6.43;;;20.20;99.90;;;-141.84;52.68;21131.03;5034311;28;20726;-62
2022/07/25 04:57:12;;;;;;;6.63;6.03;;;20.30;99.90;;;-141.84;52.62;21143.22;5020781;28;20234;-62
2022/07/25 04:59:43;;;;;;;6.93;6.32;;;20.40;99.90;;;-141.84;52.29;21196.09;5014484;28;20222;-62
2022/07/25 05:02:11;;;;;;;6.25;5.65;;;20.60;99.90;;;-141.84;50.74;21391.28;5014183;28;20188;-63
2022/07/25 05:04:39;;;;;;;7.13;6.47;;;21.20;99.90;;;-141.84;46.08;21850.78;5014729;28;20293;-63
2022/07/25 05:07:12;;;;;;;7.18;6.57;;;22.50;99.90;;;-141.84;42.25;22267.66;5013768;28;20365;-64
2022/07/25 05:09:40;;;;;;;6.88;6.28;;;24.00;99.90;;;-141.84;39.09;22721.19;5013992;28;20258;-62
2022/07/25 05:12:09;;;;;;;6.85;6.15;;;25.40;99.90;;;-141.84;37.90;22940.84;5025390;28;20236;-62
2022/07/25 05:14:37;;;;;;;7.60;6.10;;;26.40;99.90;;;-141.84;36.63;23117.81;5033881;28;20232;-63
2022/07/25 05:17:06;;;;;;;7.07;6.43;;;27.20;99.90;;;-141.84;35.72;23380.22;5033609;28;20221;-63
2022/07/25 05:19:35;;;;;;;7.22;6.63;;;27.90;99.90;;;-141.84;33.96;23618.25;5034376;28;20202;-63
2022/07/25 05:22:04;;;;;;;6.97;6.13;;;28.50;99.90;;;-141.84;32.81;23941.72;5033531;28;20697;-63
2022/07/25 05:24:33;;;;;;;6.97;6.38;;;29.10;99.90;;;-141.84;33.36;23856.25;5033617;28;20236;-64
2022/07/25 05:27:02;;;;;;;7.63;6.90;;;29.50;99.90;;;-141.84;33.84;23742.34;5033532;28;20721;-63
2022/07/25 05:29:31;;;;;;;7.85;6.85;;;29.30;99.90;;;-141.84;33.29;23803.38;5033645;28;20226;-63
2022/07/25 05:31:59;;;;;;;8.10;6.97;;;29.00;99.90;;;-141.84;33.81;23679.28;5033306;28;20214;-64
2022/07/25 05:34:29;;;;;;;7.63;6.72;;;28.90;99.90;;;-141.84;34.55;23516.53;5033754;28;20202;-65
2022/07/25 05:36:57;;;;;;;7.45;6.78;;;28.70;99.90;;;-141.84;36.15;23111.72;5033050;28;20229;-64
2022/07/25 05:39:25;;;;;;;8.10;7.47;;;28.10;99.90;;;-141.84;36.92;22892.03;5030013;28;20927;-63
2022/07/25 05:41:53;;;;;;;8.50;7.70;;;27.50;99.90;;;-141.84;38.11;22692.72;5040265;28;20225;-64
2022/07/25 05:44:21;;;;;;;8.18;7.47;;;26.90;99.90;;;-141.84;38.72;22615.44;5053103;28;20236;-64
2022/07/25 05:46:49;;;;;;;7.88;7.13;;;26.60;99.90;;;-141.84;39.70;22436.47;5053014;28;20203;-62
2022/07/25 05:49:17;;;;;;;8.13;7.35;;;26.40;99.90;;;-141.84;40.68;22359.19;5052922;28;20411;-64
2022/07/25 05:51:47;;;;;;;8.30;7.65;;;26.00;99.90;;;-141.84;40.67;22312.41;5053001;28;20225;-65
2022/07/25 05:54:15;;;;;;;8.70;7.95;;;26.00;99.90;;;-141.84;41.60;22285.97;5052776;28;20221;-64
2022/07/25 05:56:43;;;;;;;8.10;7.40;;;25.90;99.90;;;-141.84;41.23;22310.38;5043315;28;20228;-64
2022/07/25 05:59:11;;;;;;;8.20;7.50;;;25.90;99.90;;;-141.84;41.67;22263.59;5032834;28;20208;-64
2022/07/25 06:01:39;;;;;;;7.90;7.22;;;25.80;99.90;;;-141.84;41.99;22263.59;5032950;28;20297;-65
2022/07/25 06:04:07;;;;;;;8.57;7.78;;;25.80;99.90;;;-141.84;41.51;22261.56;5032799;28;20313;-64
2022/07/25 06:06:36;;;;;;;21.50;9.55;;;25.70;99.90;;;-141.84;41.44;22292.06;5032702;28;20238;-65
2022/07/25 06:09:05;;;;;;;9.80;8.60;;;25.90;99.90;;;-141.84;41.59;22353.09;5032673;28;20230;-65
2022/07/25 06:11:35;;;;;;;14.95;8.43;;;26.00;99.90;;;-141.84;41.44;22318.50;5039854;28;20308;-64
2022/07/25 06:14:18;;;;;;;10.07;8.20;;;26.00;99.90;;;-141.84;41.13;22353.09;5052624;28;20237;-64
2022/07/25 06:16:46;;;;;;;9.88;8.27;;;26.10;99.90;;;-141.84;41.27;22340.88;5052993;28;20197;-64
2022/07/25 06:19:14;;;;;;;8.88;8.10;;;26.10;99.90;;;-141.84;41.22;22353.09;5052313;28;20234;-64
2022/07/25 06:21:42;;;;;;;8.38;7.57;;;26.20;99.90;;;-141.84;41.76;22383.59;5052394;28;20237;-65
2022/07/25 06:24:12;;;;;;;7.93;7.13;;;26.30;99.90;;;-141.84;41.39;22424.25;5052554;28;20225;-64
2022/07/25 06:26:40;;;;;;;9.20;8.35;;;26.40;99.90;;;-141.84;40.93;22393.75;5052473;28;20225;-64
2022/07/25 06:29:08;;;;;;;7.80;7.15;;;26.40;99.90;;;-141.84;41.27;22401.88;5052432;28;20224;-63
2022/07/25 06:31:36;;;;;;;8.25;7.55;;;26.40;99.90;;;-141.84;41.38;22391.72;5052788;28;20193;-63
2022/07/25 06:34:04;;;;;;;8.60;7.85;;;26.40;99.90;;;-141.84;41.22;22391.72;5051998;28;20244;-64
2022/07/25 06:36:33;;;;;;;11.63;8.35;;;26.50;99.90;;;-141.84;40.98;22426.28;5052047;28;20233;-64
2022/07/25 06:39:02;;;;;;;9.95;8.32;;;26.50;99.90;;;-141.84;41.09;22452.72;5052002;28;20234;-63
2022/07/25 06:41:31;;;;;;;9.63;8.02;;;26.50;99.90;;;-141.84;41.10;22436.47;5052278;28;20228;-63
2022/07/25 06:43:59;;;;;;;8.90;8.10;;;26.50;99.90;;;-141.84;41.23;22452.72;5052221;28;20205;-65
2022/07/25 06:46:30;;;;;;;12.98;8.30;;;26.60;99.90;;;-141.84;41.27;22464.94;5052849;28;20201;-64
2022/07/25 06:48:58;;;;;;;32.53;11.27;;;26.60;99.90;;;-141.84;41.04;22436.47;5051994;28;20225;-64
2022/07/25 06:51:26;;;;;;;13.70;8.60;;;26.60;99.90;;;-141.84;41.08;22464.94;5052111;28;20233;-64
2022/07/25 06:53:55;;;;;;;8.68;7.85;;;26.60;99.90;;;-141.84;40.76;22507.66;5051929;28;20732;-64
2022/07/25 06:56:23;;;;;;;90.45;18.02;;;26.70;99.90;;;-141.84;41.13;22521.88;5045183;28;20228;-64
2022/07/25 06:58:53;;;;;;;21.85;10.35;;;26.70;99.90;;;-141.84;41.10;22527.97;5031493;28;20232;-65
2022/07/25 07:01:21;;;;;;;8.40;7.70;;;26.80;99.90;;;-141.84;41.05;22546.28;5031684;28;20696;-63
2022/07/25 07:03:49;;;;;;;8.80;7.93;;;26.90;99.90;;;-141.84;41.05;22517.81;5031972;28;20246;-64
2022/07/25 07:06:17;;;;;;;9.68;7.55;;;27.00;99.90;;;-141.84;41.16;22554.41;5031934;28;20241;-63
2022/07/25 07:08:45;;;;;;;9.07;7.90;;;27.00;99.90;;;-141.84;40.98;22566.63;5031807;28;20229;-64
2022/07/25 07:11:15;;;;;;;9.73;7.90;;;27.10;99.90;;;-141.84;41.12;22611.38;5036120;28;20641;-63
2022/07/25 07:13:43;;;;;;;8.77;7.97;;;27.10;99.90;;;-141.84;41.03;22627.63;5052045;28;20291;-64
2022/07/25 07:16:13;;;;;;;9.20;8.35;;;27.20;99.90;;;-141.84;40.22;22647.97;5051269;28;20221;-63
2022/07/25 07:18:41;;;;;;;31.02;11.27;;;27.30;99.90;;;-141.84;40.46;22599.16;5051141;28;20224;-63
2022/07/25 07:21:16;;;;;;;10.23;8.63;;;27.30;99.90;;;-141.84;40.41;22615.44;5051705;28;20228;-65
2022/07/25 07:23:49;;;;;;;11.38;8.45;;;27.10;99.90;;;-141.84;40.68;22546.28;5051691;28;20225;-63
2022/07/25 07:26:21;;;;;;;13.40;8.98;;;27.00;99.90;;;-141.84;41.01;22550.34;5051676;28;20213;-65
2022/07/25 07:28:49;;;;;;;13.68;8.50;;;27.00;99.90;;;-141.84;40.93;22509.69;5052014;28;20593;-63
2022/07/25 07:31:18;;;;;;;18.52;9.40;;;27.00;99.90;;;-141.84;41.38;22489.34;5051372;28;20263;-64
2022/07/25 07:33:47;;;;;;;27.13;11.15;;;26.80;99.90;;;-141.84;40.88;22599.16;5051068;28;20240;-65
2022/07/25 07:36:15;;;;;;;47.75;14.23;;;27.00;99.90;;;-141.84;40.99;22568.66;5040300;28;20630;-63
2022/07/25 07:38:44;;;;;;;11.13;8.35;;;27.20;99.90;;;-141.84;40.88;22595.09;5050874;28;20225;-63
2022/07/25 07:41:12;;;;;;;8.98;8.07;;;27.20;99.90;;;-141.84;40.88;22609.34;5051503;28;20205;-64
2022/07/25 07:43:40;;;;;;;10.43;8.82;;;27.30;99.90;;;-141.84;40.43;22645.94;5051893;28;20291;-64
2022/07/25 07:46:08;;;;;;;12.63;8.75;;;27.40;99.90;;;-141.84;40.86;22672.38;5051268;28;20225;-64
2022/07/25 07:48:38;;;;;;;19.00;8.95;;;27.40;99.90;;;-141.84;39.98;22721.19;5051255;28;20623;-63
2022/07/25 07:51:07;;;;;;;9.48;8.05;;;27.60;99.90;;;-141.84;40.22;22652.03;5051348;28;20233;-63
2022/07/25 07:56:20;;;;;;;50.45;13.65;;;27.60;99.90;;;-141.84;40.29;22698.81;5045247;28;20237;-63
2022/07/25 07:58:49;;;;;;;9.80;8.48;;;27.70;99.90;;;-141.84;40.39;22660.19;5031568;28;20572;-64
2022/07/25 08:01:18;;;;;;;44.50;12.02;;;27.70;99.90;;;-141.84;40.53;22757.81;5031179;28;20328;-63
2022/07/25 08:03:47;;;;;;;9.27;8.38;;;27.80;99.90;;;-141.84;39.44;22788.31;5031226;28;20727;-64
2022/07/25 08:06:15;;;;;;;18.10;8.70;;;28.00;99.90;;;-141.84;38.92;22812.72;5031169;28;20276;-64
2022/07/25 08:08:43;;;;;;;14.35;9.10;;;28.10;99.90;;;-141.84;39.47;22810.69;5031549;28;20704;-65
2022/07/25 08:11:11;;;;;;;14.55;8.73;;;28.20;99.90;;;-141.84;38.95;22879.84;5039373;28;20216;-63
2022/07/25 08:13:39;;;;;;;9.00;8.20;;;28.20;99.90;;;-141.84;38.87;22912.38;5055475;28;20197;-64
2022/07/25 08:16:10;;;;;;;9.30;8.30;;;28.40;99.90;;;-141.84;38.63;22892.03;5054736;28;20221;-65
2022/07/25 08:18:38;;;;;;;9.07;8.15;;;28.30;99.90;;;-141.84;38.69;22890.00;5054778;28;20723;-64
2022/07/25 08:21:08;;;;;;;20.23;9.27;;;28.40;99.90;;;-141.84;38.29;22920.53;5055007;28;20235;-63
2022/07/25 08:23:37;;;;;;;14.60;9.52;;;28.50;99.90;;;-141.84;38.27;22995.78;5054936;28;20244;-63
2022/07/25 08:26:06;;;;;;;9.13;8.32;;;28.60;99.90;;;-141.84;38.12;22989.69;5054530;28;20633;-64
2022/07/25 08:28:35;;;;;;;8.23;7.57;;;28.60;99.90;;;-141.84;38.29;22973.41;5055214;28;20251;-65
2022/07/25 08:31:03;;;;;;;8.93;8.10;;;28.70;99.90;;;-141.84;37.71;23052.72;5040643;28;20225;-64
2022/07/25 08:33:31;;;;;;;8.82;7.97;;;28.80;99.90;;;-141.84;37.59;23062.91;5034418;28;20245;-65
2022/07/25 08:36:00;;;;;;;10.23;8.07;;;28.80;99.90;;;-141.84;37.76;23054.75;5034462;28;20251;-65
2022/07/25 08:38:29;;;;;;;8.98;8.27;;;28.90;99.90;;;-141.84;37.76;23075.09;5034394;28;20226;-64
2022/07/25 08:40:58;;;;;;;9.02;8.23;;;28.90;99.90;;;-141.84;37.24;23101.53;5036923;28;20202;-66
2022/07/25 08:43:28;;;;;;;8.48;7.78;;;29.00;99.90;;;-141.84;36.96;23144.25;5054953;28;20201;-65
2022/07/25 08:45:56;;;;;;;8.35;7.63;;;29.10;99.90;;;-141.84;36.98;23174.78;5054169;28;20244;-63
2022/07/25 08:48:26;;;;;;;9.13;8.32;;;29.20;99.90;;;-141.84;36.61;23205.28;5054014;28;20233;-64
2022/07/25 08:50:56;;;;;;;9.50;8.02;;;29.30;99.90;;;-141.84;35.80;23311.06;5054128;28;20267;-64
2022/07/25 08:53:26;;;;;;;8.98;8.10;;;29.50;99.90;;;-141.84;35.60;23363.94;5054384;28;20225;-64
2022/07/25 08:56:03;;;;;;;8.68;7.97;;;29.70;99.90;;;-141.84;34.80;23368.03;5050651;28;20182;-64
2022/07/25 08:58:40;;;;;;;8.27;7.57;;;29.80;99.90;;;-141.84;35.81;23290.72;5034441;28;20648;-63
2022/07/25 09:01:11;;;;;;;8.55;7.75;;;29.70;99.90;;;-141.84;34.89;23307.00;5033869;28;20638;-64
2022/07/25 09:03:39;;;;;;;8.82;7.97;;;29.80;99.90;;;-141.84;35.43;23363.94;5034023;28;20221;-64
2022/07/25 09:06:16;;;;;;;8.32;7.53;;;29.80;99.90;;;-141.84;34.48;23437.19;5033739;28;20229;-64
2022/07/25 09:08:56;;;;;;;8.43;7.72;;;30.00;99.90;;;-141.84;34.81;23427.00;5033868;28;20717;-64
2022/07/25 09:11:34;;;;;;;8.48;7.70;;;30.00;99.90;;;-141.84;34.03;23471.78;5039567;28;20315;-63
2022/07/25 09:14:05;;;;;;;9.38;8.52;;;30.10;99.90;;;-141.84;34.42;23429.03;5053748;28;20185;-63
2022/07/25 09:16:38;;;;;;;8.90;7.97;;;30.20;99.90;;;-141.84;34.27;23498.22;5054016;28;20193;-63
2022/07/25 09:19:13;;;;;;;11.77;8.27;;;30.20;99.90;;;-141.84;33.88;23591.78;5053408;28;20279;-63
2022/07/25 09:21:44;;;;;;;8.63;7.80;;;30.40;99.90;;;-141.84;33.66;23542.97;5052888;28;20221;-63
2022/07/25 09:24:16;;;;;;;8.52;7.80;;;30.40;99.90;;;-141.84;33.43;23579.59;5053402;28;20244;-65
2022/07/25 09:26:48;;;;;;;13.93;8.35;;;30.40;99.90;;;-141.84;33.33;23646.72;5044086;28;20232;-65
2022/07/25 09:29:23;;;;;;;52.15;14.27;;;30.60;99.90;;;-141.84;33.22;23616.19;5033279;28;20186;-64
2022/07/25 09:31:53;;;;;;;8.02;7.43;;;30.60;99.90;;;-141.84;32.85;23626.38;5034280;28;20237;-63
2022/07/25 09:34:37;;;;;;;40.35;12.70;;;30.60;99.90;;;-141.84;33.41;23591.78;5033375;28;20236;-63
2022/07/25 09:37:08;;;;;;;8.25;7.45;;;30.50;99.90;;;-141.84;33.23;23642.66;5033262;28;20233;-64
2022/07/25 09:39:41;;;;;;;8.60;7.80;;;30.60;99.90;;;-141.84;33.66;23616.19;5033340;28;20236;-65
2022/07/25 09:42:25;;;;;;;8.23;7.53;;;30.60;99.90;;;-141.84;33.14;23636.53;5045972;28;20233;-65
2022/07/25 09:45:14;;;;;;;8.30;7.50;;;30.70;99.90;;;-141.84;32.99;23774.88;5053082;28;20228;-63
2022/07/25 09:47:55;;;;;;;8.05;7.35;;;30.80;99.90;;;-141.84;32.41;23805.41;5047307;28;20221;-64
2022/07/25 09:50:26;;;;;;;8.38;7.10;;;31.00;99.90;;;-141.84;31.96;23795.22;5053299;28;20225;-64
2022/07/25 09:53:01;;;;;;;13.50;7.95;;;31.00;99.90;;;-141.84;31.98;23831.84;5053930;28;20182;-63
2022/07/25 09:55:31;;;;;;;7.80;7.20;;;31.10;99.90;;;-141.84;32.23;23805.41;5053561;28;20223;-64
2022/07/25 09:58:01;;;;;;;8.10;7.50;;;31.10;99.90;;;-141.84;31.66;23825.75;5033037;28;20248;-64
2022/07/25 10:00:31;;;;;;;8.38;7.78;;;31.10;99.90;;;-141.84;32.24;23811.50;5032815;28;20226;-64
2022/07/25 10:03:17;;;;;;;7.63;6.93;;;31.10;99.90;;;-141.84;31.98;23868.47;5032936;28;20229;-63
2022/07/25 10:06:07;;;;;;;8.25;7.25;;;31.10;99.90;;;-141.84;30.96;23970.19;5033153;28;20229;-66
2022/07/25 10:08:38;;;;;;;7.55;7.00;;;31.30;99.90;;;-141.84;31.34;23972.22;5033245;28;20831;-64
2022/07/25 10:11:20;;;;;;;23.13;9.68;;;31.30;99.90;;;-141.84;31.24;23968.16;5035614;28;20785;-64
2022/07/25 10:13:50;;;;;;;8.30;7.45;;;31.40;99.90;;;-141.84;30.65;24053.63;5053388;28;20182;-65
2022/07/25 10:16:21;;;;;;;8.30;7.50;;;31.60;99.90;;;-141.84;30.61;24073.97;5052265;28;20232;-63
2022/07/25 10:18:52;;;;;;;7.65;7.05;;;31.70;99.80;;;-141.84;30.57;24057.69;5052757;28;20229;-64
2022/07/25 10:21:22;;;;;;;7.60;6.80;;;31.60;99.70;;;-141.84;29.98;24002.75;5052179;28;20250;-63